This is the latest recevied weather packets stored in our database for station/object SQ6IUS-13. If no packets are shown the sender has not sent any weather packets the latest 1 day(s).
| Time | Temp. | Humidity | Pressure | Rain* | Wind** | Luminosity | Snow |
|---|---|---|---|---|---|---|---|
| 1778093367 | 13.33° C | 100% | 1007.5 hPa | - | - | - | - |
| 1778088871 | 15° C | 100% | 1005.8 hPa | - | - | - | - |
| 1778087972 | 15° C | 100% | 1005.5 hPa | - | - | - | - |
| 1778087074 | 17.78° C | 100% | 1005.8 hPa | - | - | - | - |
| 1778085276 | 23.33° C | 44% | 1005.2 hPa | - | - | - | - |
| 1778083479 | 25° C | 35% | 1005.4 hPa | - | - | - | - |
| 1778078090 | 25.56° C | 37% | 1005.6 hPa | - | - | - | - |
| 1778076291 | 25° C | 37% | 1006 hPa | - | - | - | - |
| 1778074489 | 25.56° C | 41% | 1006 hPa | - | - | - | - |
| 1778072691 | 22.78° C | 47% | 1006.3 hPa | - | - | - | - |
| 1778070893 | 22.22° C | 49% | 1006.3 hPa | - | - | - | - |
| 1778069096 | 22.22° C | 50% | 1006.2 hPa | - | - | - | - |
| 1778059211 | 18.89° C | 100% | 1006.3 hPa | - | - | - | - |
| 1778057410 | 21.11° C | 100% | 1006.2 hPa | - | - | - | - |
| 1778056511 | 20.56° C | 100% | 1006.1 hPa | - | - | - | - |
| 1778054714 | 17.78° C | 100% | 1006.2 hPa | - | - | - | - |
| 1778052017 | 17.78° C | 100% | 1005.9 hPa | - | - | - | - |
| 1778050222 | 14.44° C | 100% | 1006.1 hPa | - | - | - | - |
| 1778049319 | 13.89° C | 100% | 1006 hPa | - | - | - | - |
| 1778048420 | 13.33° C | 100% | 1006.1 hPa | - | - | - | - |
| 1778047521 | 12.78° C | 100% | 1006 hPa | - | - | - | - |
| 1778046622 | 12.78° C | 100% | 1005.8 hPa | - | - | - | - |
| 1778045465 | 12.78° C | 100% | 1005.7 hPa | - | - | - | - |
| 1778044566 | 11.67° C | 100% | 1005.7 hPa | - | - | - | - |
| 1778043666 | 10.56° C | 100% | 1005.6 hPa | - | - | - | - |
* Rain since midnight (hover to see other rain measurements)
** Current wind speed in m/s (hover to see current wind gust speed)